Time;durP1;ratioP1;P1;durP2;ratioP2;P2;SDS_P1;SDS_P2;PMS_P1;PMS_P2;Temp;Humidity;BMP_temperature;BMP_pressure;BME280_temperature;BME280_humidity;BME280_pressure;Samples;Min_cycle;Max_cycle;Signal;HPM_P1;HPM_P2
2022/03/14 00:01:30;;;;;;;22.70;13.57;;;7.40;22.60;;;;;;5117365;28;20463;-70
2022/03/14 00:03:58;;;;;;;21.03;12.53;;;7.40;22.50;;;;;;5117096;28;20464;-70
2022/03/14 00:06:26;;;;;;;21.97;14.23;;;7.40;22.50;;;;;;5117363;28;20550;-70
2022/03/14 00:08:57;;;;;;;23.50;14.17;;;7.30;22.70;;;;;;5117748;28;20463;-69
2022/03/14 00:11:26;;;;;;;19.53;13.97;;;7.30;22.80;;;;;;5117015;28;20452;-70
2022/03/14 00:13:56;;;;;;;21.60;14.00;;;7.30;22.90;;;;;;5117023;28;20457;-70
2022/03/14 00:16:24;;;;;;;20.93;13.30;;;7.30;22.90;;;;;;5117071;28;20850;-70
2022/03/14 00:18:52;;;;;;;18.80;13.77;;;7.30;22.80;;;;;;5116628;28;20456;-70
2022/03/14 00:21:21;;;;;;;20.90;14.13;;;7.20;22.90;;;;;;5116968;28;20452;-70
2022/03/14 00:23:50;;;;;;;23.37;12.70;;;7.20;22.90;;;;;;5117116;28;20919;-70
2022/03/14 00:26:16;;;;;;;22.47;13.63;;;7.20;22.90;;;;;;5116814;28;20452;-70
2022/03/14 00:28:43;;;;;;;19.13;13.23;;;7.20;23.00;;;;;;5116982;28;20456;-69
2022/03/14 00:31:10;;;;;;;22.00;14.60;;;7.20;23.10;;;;;;5116818;28;20536;-70
2022/03/14 00:33:39;;;;;;;21.53;13.20;;;7.20;23.10;;;;;;5116904;28;20457;-71
2022/03/14 00:36:08;;;;;;;22.87;14.50;;;7.10;23.10;;;;;;5116804;28;20843;-71
2022/03/14 00:38:36;;;;;;;25.80;14.37;;;7.10;23.10;;;;;;5116768;28;20479;-71
2022/03/14 00:41:04;;;;;;;22.03;13.93;;;7.10;23.20;;;;;;5116710;28;20770;-71
2022/03/14 00:43:31;;;;;;;23.67;14.00;;;7.00;23.10;;;;;;5116449;28;20919;-71
2022/03/14 00:45:58;;;;;;;21.13;13.40;;;7.00;23.20;;;;;;5116468;28;20996;-71
2022/03/14 00:48:25;;;;;;;25.73;14.73;;;7.00;23.20;;;;;;5116552;28;20793;-71
2022/03/14 00:50:52;;;;;;;25.20;15.20;;;7.00;23.20;;;;;;5116720;28;20932;-70
2022/03/14 00:53:19;;;;;;;27.17;15.53;;;7.00;23.30;;;;;;5116160;28;20480;-70
2022/03/14 00:55:45;;;;;;;25.60;14.10;;;7.00;23.30;;;;;;5116312;28;20546;-70
2022/03/14 00:58:13;;;;;;;21.70;13.97;;;7.00;23.40;;;;;;5116286;28;20766;-70
2022/03/14 01:00:40;;;;;;;24.70;15.13;;;6.90;23.30;;;;;;5116456;28;20463;-70
2022/03/14 01:03:09;;;;;;;28.03;14.47;;;6.90;23.40;;;;;;5115367;28;20509;-69
2022/03/14 01:05:36;;;;;;;24.27;14.80;;;7.00;23.60;;;;;;5116002;28;20467;-70
2022/03/14 01:08:03;;;;;;;22.50;15.00;;;6.90;23.50;;;;;;5116012;28;20906;-71
2022/03/14 01:10:30;;;;;;;24.20;15.47;;;6.90;23.50;;;;;;5117118;28;20551;-71
2022/03/14 01:13:01;;;;;;;28.90;14.73;;;6.90;23.50;;;;;;5116033;28;20453;-70
2022/03/14 01:15:32;;;;;;;22.00;14.57;;;6.90;23.50;;;;;;5115698;28;20448;-70
2022/03/14 01:17:58;;;;;;;31.07;15.73;;;6.80;23.80;;;;;;5115962;28;20464;-71
2022/03/14 01:20:26;;;;;;;24.33;14.80;;;6.80;23.60;;;;;;5115676;28;20925;-70
2022/03/14 01:22:54;;;;;;;20.67;14.07;;;6.70;23.60;;;;;;5116098;28;20521;-71
2022/03/14 01:25:21;;;;;;;23.73;14.77;;;6.80;24.20;;;;;;5116047;28;20596;-71
2022/03/14 01:27:47;;;;;;;21.10;14.47;;;6.70;23.80;;;;;;5115480;28;20452;-71
2022/03/14 01:30:15;;;;;;;24.83;14.97;;;6.70;23.80;;;;;;5115724;28;20746;-70
2022/03/14 01:32:43;;;;;;;21.43;13.80;;;6.70;23.90;;;;;;5115502;28;20553;-70
2022/03/14 01:35:10;;;;;;;23.10;13.80;;;6.70;24.00;;;;;;5115424;28;20956;-71
2022/03/14 01:37:37;;;;;;;21.23;14.37;;;6.60;24.00;;;;;;5115707;28;20487;-70
2022/03/14 01:40:04;;;;;;;26.60;15.30;;;6.60;24.10;;;;;;5115607;28;20467;-70
2022/03/14 01:42:30;;;;;;;24.57;14.33;;;6.60;24.10;;;;;;5115837;28;20456;-70
2022/03/14 01:44:57;;;;;;;23.83;14.63;;;6.60;24.10;;;;;;5115705;28;20460;-70
2022/03/14 01:47:24;;;;;;;24.37;14.43;;;6.50;24.20;;;;;;5115787;28;20456;-70
2022/03/14 01:49:52;;;;;;;21.53;14.33;;;6.50;24.20;;;;;;5115295;28;20917;-69
2022/03/14 01:52:20;;;;;;;25.80;14.60;;;6.40;24.30;;;;;;5115801;28;20552;-70
2022/03/14 01:54:46;;;;;;;22.90;15.00;;;6.40;24.30;;;;;;5116617;28;20466;-70
2022/03/14 01:57:14;;;;;;;25.37;14.13;;;6.30;24.40;;;;;;5115974;28;20576;-70
2022/03/14 01:59:42;;;;;;;21.97;14.73;;;6.40;24.60;;;;;;5115902;28;20433;-71
2022/03/14 02:02:08;;;;;;;23.93;14.60;;;6.30;24.50;;;;;;5115625;28;20463;-70
2022/03/14 02:04:36;;;;;;;24.60;13.83;;;6.30;24.60;;;;;;5115519;28;20452;-70
2022/03/14 02:07:04;;;;;;;22.67;14.10;;;6.30;24.50;;;;;;5115244;28;20462;-70
2022/03/14 02:09:31;;;;;;;23.47;14.40;;;6.30;24.60;;;;;;5115246;28;20457;-70
2022/03/14 02:12:07;;;;;;;21.80;13.87;;;6.20;24.70;;;;;;5115180;28;20456;-70
2022/03/14 02:14:39;;;;;;;22.20;13.73;;;6.20;24.70;;;;;;5115199;28;20649;-70
2022/03/14 02:17:06;;;;;;;21.63;12.33;;;6.20;24.70;;;;;;5114889;28;20502;-70
2022/03/14 02:19:34;;;;;;;21.23;13.80;;;6.20;24.80;;;;;;5116220;28;20465;-70
2022/03/14 02:22:04;;;;;;;26.03;13.83;;;6.20;24.70;;;;;;5117924;28;20453;-70
2022/03/14 02:24:31;;;;;;;25.03;14.50;;;6.20;24.80;;;;;;5116407;28;20848;-70
2022/03/14 02:26:58;;;;;;;22.30;13.43;;;6.20;24.80;;;;;;5115155;28;20468;-71
2022/03/14 02:29:25;;;;;;;22.40;13.20;;;6.20;25.20;;;;;;5115097;28;20752;-71
2022/03/14 02:31:52;;;;;;;22.77;13.83;;;6.10;24.80;;;;;;5114557;28;20933;-71
2022/03/14 02:34:19;;;;;;;22.50;14.60;;;6.20;24.90;;;;;;5114471;28;20914;-71
2022/03/14 02:36:47;;;;;;;22.67;13.47;;;6.10;24.90;;;;;;5114687;28;20457;-71
2022/03/14 02:39:16;;;;;;;23.53;13.83;;;6.00;24.80;;;;;;5114503;28;20480;-71
2022/03/14 02:41:42;;;;;;;20.87;14.70;;;6.00;24.90;;;;;;5114633;28;20459;-70
2022/03/14 02:44:10;;;;;;;21.43;12.83;;;6.00;24.90;;;;;;5114709;28;20472;-71
2022/03/14 02:46:37;;;;;;;18.47;13.47;;;6.00;25.00;;;;;;5114635;28;20554;-70
2022/03/14 02:49:04;;;;;;;22.03;14.17;;;6.00;25.10;;;;;;5114303;28;20552;-70
2022/03/14 02:51:34;;;;;;;23.33;14.60;;;6.00;25.10;;;;;;5114314;28;20484;-71
2022/03/14 02:54:04;;;;;;;24.07;13.93;;;5.90;24.90;;;;;;5114469;28;20551;-71
2022/03/14 02:56:32;;;;;;;20.33;13.70;;;5.90;25.00;;;;;;5114545;28;20481;-71
2022/03/14 02:58:59;;;;;;;21.47;12.57;;;5.90;25.10;;;;;;5114602;28;20846;-71
2022/03/14 03:01:25;;;;;;;24.00;13.20;;;5.80;25.10;;;;;;5114684;28;20521;-71
2022/03/14 03:03:52;;;;;;;24.90;13.77;;;5.80;25.10;;;;;;5114549;28;20456;-71
2022/03/14 03:06:22;;;;;;;21.57;13.53;;;5.80;25.10;;;;;;5114917;28;20464;-71
2022/03/14 03:08:49;;;;;;;23.90;13.33;;;5.80;25.20;;;;;;5114210;28;20517;-70
2022/03/14 03:11:16;;;;;;;19.53;13.70;;;5.70;25.20;;;;;;5114838;28;20471;-71
2022/03/14 03:13:45;;;;;;;22.47;13.47;;;5.70;25.30;;;;;;5114888;28;20533;-70
2022/03/14 03:16:13;;;;;;;26.30;13.50;;;5.70;25.40;;;;;;5114801;28;20954;-71
2022/03/14 03:18:40;;;;;;;25.40;14.97;;;5.70;25.30;;;;;;5114363;28;20583;-71
2022/03/14 03:21:07;;;;;;;21.57;13.97;;;5.70;25.90;;;;;;5114366;28;20464;-70
2022/03/14 03:23:34;;;;;;;20.03;12.70;;;5.70;25.40;;;;;;5114646;28;20456;-71
2022/03/14 03:26:01;;;;;;;21.10;14.73;;;5.70;25.30;;;;;;5115795;28;20539;-70
2022/03/14 03:28:28;;;;;;;22.97;14.53;;;5.70;25.30;;;;;;5118198;28;20452;-71
2022/03/14 03:30:56;;;;;;;21.60;14.13;;;5.70;25.30;;;;;;5118415;28;20456;-70
2022/03/14 03:33:22;;;;;;;20.00;13.50;;;5.70;25.30;;;;;;5118316;28;20915;-70
2022/03/14 03:35:49;;;;;;;21.27;13.00;;;5.70;25.40;;;;;;5118214;28;20585;-70
2022/03/14 03:38:17;;;;;;;22.90;12.93;;;5.70;25.40;;;;;;5118229;28;20548;-70
2022/03/14 03:40:43;;;;;;;21.80;13.27;;;5.60;25.40;;;;;;5117951;28;20452;-70
2022/03/14 03:43:11;;;;;;;22.13;13.33;;;5.70;25.30;;;;;;5118031;28;20747;-70
2022/03/14 03:45:38;;;;;;;24.17;13.73;;;5.60;25.40;;;;;;5118064;28;20457;-70
2022/03/14 03:48:06;;;;;;;25.53;14.20;;;5.70;25.40;;;;;;5117992;28;20800;-70
2022/03/14 03:50:33;;;;;;;21.43;13.77;;;5.60;25.40;;;;;;5118225;28;20452;-71
2022/03/14 03:52:59;;;;;;;21.80;12.60;;;5.60;25.40;;;;;;5117964;28;20490;-70
2022/03/14 03:55:26;;;;;;;23.60;14.13;;;5.60;25.40;;;;;;5117988;28;21031;-70
2022/03/14 03:57:53;;;;;;;22.83;13.27;;;5.60;25.50;;;;;;5118578;28;20480;-70
2022/03/14 04:00:24;;;;;;;22.90;13.43;;;5.60;25.50;;;;;;5117667;28;20460;-70
2022/03/14 04:02:50;;;;;;;20.13;12.70;;;5.60;25.50;;;;;;5118001;28;20462;-70
2022/03/14 04:05:19;;;;;;;21.93;14.37;;;5.60;25.60;;;;;;5117680;28;20779;-70
2022/03/14 04:07:46;;;;;;;26.50;14.27;;;5.50;25.40;;;;;;5117635;28;20456;-70
2022/03/14 04:10:14;;;;;;;22.73;14.40;;;5.50;25.60;;;;;;5121877;28;20785;-70
2022/03/14 04:12:41;;;;;;;21.83;14.60;;;5.50;25.70;;;;;;5123201;28;20463;-70
2022/03/14 04:15:09;;;;;;;19.43;13.33;;;5.50;25.70;;;;;;5125019;28;20517;-70
2022/03/14 04:17:38;;;;;;;17.20;11.50;;;5.50;25.90;;;;;;5117586;28;20460;-70
2022/03/14 04:20:06;;;;;;;23.50;14.70;;;5.50;25.80;;;;;;5117008;28;20470;-70
2022/03/14 04:22:38;;;;;;;24.47;13.60;;;5.50;25.80;;;;;;5117307;28;20468;-70
2022/03/14 04:25:05;;;;;;;25.20;14.03;;;5.40;25.80;;;;;;5117300;28;20465;-70
2022/03/14 04:27:32;;;;;;;21.27;14.53;;;5.50;25.80;;;;;;5117218;28;20540;-71
2022/03/14 04:30:00;;;;;;;21.63;14.33;;;5.40;25.90;;;;;;5117173;28;20448;-69
2022/03/14 04:32:27;;;;;;;22.70;13.73;;;5.40;25.90;;;;;;5117359;28;20452;-70
2022/03/14 04:34:54;;;;;;;23.70;14.10;;;5.40;25.90;;;;;;5117128;28;20992;-70
2022/03/14 04:37:21;;;;;;;21.10;13.33;;;5.40;26.00;;;;;;5115770;28;20821;-71
2022/03/14 04:39:49;;;;;;;20.30;13.93;;;5.40;26.00;;;;;;5116378;28;20476;-69
2022/03/14 04:42:17;;;;;;;19.90;12.40;;;5.30;25.90;;;;;;5116968;28;20456;-70
2022/03/14 04:44:44;;;;;;;24.33;14.40;;;5.30;26.00;;;;;;5116894;28;20804;-71
2022/03/14 04:47:11;;;;;;;24.03;14.97;;;5.30;26.00;;;;;;5116714;28;20847;-70
2022/03/14 04:49:38;;;;;;;25.47;14.80;;;5.30;26.10;;;;;;5116846;28;20511;-70
2022/03/14 04:52:05;;;;;;;21.40;14.77;;;5.30;26.20;;;;;;5116447;28;20480;-71
2022/03/14 04:54:32;;;;;;;23.27;14.17;;;5.30;26.10;;;;;;5116895;28;20456;-71
2022/03/14 04:57:00;;;;;;;26.53;15.13;;;5.30;26.10;;;;;;5116703;28;20452;-70
2022/03/14 04:59:26;;;;;;;22.83;14.30;;;5.30;26.10;;;;;;5116665;28;20480;-71
2022/03/14 05:01:53;;;;;;;23.47;14.50;;;5.20;26.20;;;;;;5116676;28;20456;-71
2022/03/14 05:04:20;;;;;;;19.63;13.87;;;5.20;26.20;;;;;;5116413;28;20452;-70
2022/03/14 05:06:46;;;;;;;23.67;15.67;;;5.20;26.40;;;;;;5116676;28;20808;-70
2022/03/14 05:09:14;;;;;;;24.70;15.00;;;5.10;26.40;;;;;;5116729;28;20452;-71
2022/03/14 05:11:40;;;;;;;22.43;14.83;;;5.10;26.50;;;;;;5116235;28;20467;-70
2022/03/14 05:14:09;;;;;;;26.20;14.00;;;5.10;26.50;;;;;;5116329;28;20452;-69
2022/03/14 05:16:35;;;;;;;22.60;14.07;;;5.10;26.50;;;;;;5116409;28;20864;-69
2022/03/14 05:19:02;;;;;;;27.17;15.07;;;5.10;26.60;;;;;;5116023;28;20802;-70
2022/03/14 05:21:29;;;;;;;24.13;14.10;;;5.10;26.80;;;;;;5116531;28;20456;-70
2022/03/14 05:23:55;;;;;;;23.90;14.10;;;5.10;26.80;;;;;;5116148;28;20460;-69
2022/03/14 05:26:22;;;;;;;27.23;14.53;;;5.10;26.80;;;;;;5116692;28;20460;-71
2022/03/14 05:28:49;;;;;;;22.17;14.70;;;5.10;26.80;;;;;;5116238;28;20917;-70
2022/03/14 05:31:17;;;;;;;27.17;16.00;;;5.10;26.80;;;;;;5115652;28;20486;-71
2022/03/14 05:33:44;;;;;;;24.50;16.37;;;5.00;27.00;;;;;;5116096;28;20957;-70
2022/03/14 05:36:11;;;;;;;27.50;17.47;;;5.00;27.20;;;;;;5116122;28;20547;-71
2022/03/14 05:38:38;;;;;;;29.60;16.37;;;4.90;27.20;;;;;;5116029;28;20472;-71
2022/03/14 05:41:05;;;;;;;27.33;14.70;;;5.00;27.30;;;;;;5116379;28;20779;-71
2022/03/14 05:43:37;;;;;;;27.47;16.17;;;4.90;27.30;;;;;;5115596;28;20891;-70
2022/03/14 05:46:04;;;;;;;36.17;20.67;;;4.90;27.50;;;;;;5116066;28;20436;-71
2022/03/14 05:48:35;;;;;;;25.70;14.20;;;4.90;27.50;;;;;;5115207;28;20499;-71
2022/03/14 05:51:02;;;;;;;34.50;19.00;;;4.90;27.50;;;;;;5115674;28;20590;-71
2022/03/14 05:53:31;;;;;;;37.30;21.70;;;4.90;27.50;;;;;;5115665;28;21001;-71
2022/03/14 05:55:58;;;;;;;31.07;18.87;;;4.90;27.90;;;;;;5115531;28;20456;-71
2022/03/14 05:58:25;;;;;;;30.97;19.70;;;4.90;27.70;;;;;;5116143;28;20495;-71
2022/03/14 06:00:52;;;;;;;37.30;21.43;;;4.90;27.70;;;;;;5116575;28;20794;-70
2022/03/14 06:03:20;;;;;;;25.57;16.50;;;4.90;27.60;;;;;;5117409;28;20448;-71
2022/03/14 06:05:49;;;;;;;25.87;15.70;;;5.00;27.60;;;;;;5116323;28;20456;-71
2022/03/14 06:08:15;;;;;;;22.90;14.87;;;5.00;27.60;;;;;;5116118;28;20539;-70
2022/03/14 06:10:45;;;;;;;25.60;15.00;;;5.00;27.40;;;;;;5115722;28;20463;-69
2022/03/14 06:13:11;;;;;;;27.30;16.20;;;4.90;27.40;;;;;;5115362;28;20452;-70
2022/03/14 06:15:38;;;;;;;23.90;15.40;;;4.90;27.40;;;;;;5115361;28;20537;-70
2022/03/14 06:18:05;;;;;;;24.20;15.37;;;5.00;27.60;;;;;;5115693;28;20452;-70
2022/03/14 06:20:32;;;;;;;27.77;14.87;;;5.00;27.70;;;;;;5116127;28;20748;-71
2022/03/14 06:23:01;;;;;;;29.37;16.50;;;5.00;27.70;;;;;;5115800;28;20464;-70
2022/03/14 06:25:28;;;;;;;24.00;15.13;;;5.00;27.80;;;;;;5115851;28;20456;-70
2022/03/14 06:27:54;;;;;;;26.40;15.77;;;5.00;27.70;;;;;;5114987;28;20540;-71
2022/03/14 06:30:21;;;;;;;23.40;14.70;;;5.00;27.80;;;;;;5115332;28;20463;-71
2022/03/14 06:32:49;;;;;;;23.10;16.27;;;5.00;27.70;;;;;;5115213;28;20471;-71
2022/03/14 06:35:17;;;;;;;28.83;15.47;;;5.00;27.70;;;;;;5115352;28;20491;-71
2022/03/14 06:37:45;;;;;;;27.73;15.57;;;5.00;27.80;;;;;;5115242;28;20922;-71
2022/03/14 06:40:14;;;;;;;26.03;16.27;;;5.00;27.70;;;;;;5114764;28;20515;-71
2022/03/14 06:42:48;;;;;;;26.90;16.30;;;5.00;27.60;;;;;;5114586;28;20453;-71
2022/03/14 06:45:19;;;;;;;28.23;16.20;;;5.00;27.60;;;;;;5115109;28;20440;-71
2022/03/14 06:47:46;;;;;;;28.03;15.47;;;5.00;27.60;;;;;;5115952;28;20436;-70
2022/03/14 06:50:14;;;;;;;23.97;15.93;;;5.10;27.50;;;;;;5116253;28;20555;-70
2022/03/14 06:52:41;;;;;;;29.73;16.50;;;5.10;27.50;;;;;;5115826;28;20534;-70
2022/03/14 06:55:11;;;;;;;24.57;14.43;;;5.20;27.60;;;;;;5116156;28;20462;-73
2022/03/14 06:57:39;;;;;;;34.57;16.20;;;5.20;27.50;;;;;;5115987;28;20548;-71
2022/03/14 07:00:08;;;;;;;22.50;15.83;;;5.20;27.40;;;;;;5115094;28;20966;-71
2022/03/14 07:02:38;;;;;;;25.80;14.63;;;5.30;27.30;;;;;;5119518;28;20456;-71
2022/03/14 07:05:06;;;;;;;24.77;15.00;;;5.30;27.20;;;;;;5119872;28;20452;-71
2022/03/14 07:07:33;;;;;;;24.63;16.50;;;5.40;27.30;;;;;;5118415;28;20460;-71
2022/03/14 07:09:59;;;;;;;28.57;19.00;;;5.50;27.30;;;;;;5118566;28;20459;-71
2022/03/14 07:12:26;;;;;;;29.97;17.30;;;5.50;27.20;;;;;;5117971;28;20517;-71
2022/03/14 07:14:54;;;;;;;22.67;15.50;;;5.60;27.10;;;;;;5118089;28;20464;-71
2022/03/14 07:17:21;;;;;;;23.37;14.20;;;5.70;27.00;;;;;;5118269;28;20794;-71
2022/03/14 07:19:47;;;;;;;29.80;15.83;;;5.80;27.00;;;;;;5117703;28;20508;-71
2022/03/14 07:22:19;;;;;;;24.27;14.97;;;5.90;26.70;;;;;;5118026;28;20796;-70
2022/03/14 07:24:46;;;;;;;31.30;17.30;;;5.90;26.60;;;;;;5117762;28;20447;-71
2022/03/14 07:27:12;;;;;;;26.80;14.83;;;6.00;26.60;;;;;;5118020;28;20794;-71
2022/03/14 07:29:39;;;;;;;23.70;14.57;;;6.10;26.50;;;;;;5118344;28;20919;-71
2022/03/14 07:32:08;;;;;;;24.70;14.93;;;6.20;26.40;;;;;;5117757;28;20482;-70
2022/03/14 07:34:35;;;;;;;22.53;14.60;;;6.20;26.20;;;;;;5118451;28;20476;-70
2022/03/14 07:37:02;;;;;;;22.77;14.70;;;6.20;26.20;;;;;;5117517;28;20464;-71
2022/03/14 07:39:29;;;;;;;26.90;15.80;;;6.30;26.30;;;;;;5118057;28;20973;-70
2022/03/14 07:41:56;;;;;;;26.53;15.83;;;6.40;26.00;;;;;;5117596;28;20468;-70
2022/03/14 07:44:23;;;;;;;22.80;14.23;;;6.50;25.70;;;;;;5117551;28;20456;-70
2022/03/14 07:46:50;;;;;;;29.77;15.50;;;6.50;25.80;;;;;;5116743;28;20463;-70
2022/03/14 07:49:20;;;;;;;26.57;14.23;;;6.50;25.70;;;;;;5117103;28;20906;-70
2022/03/14 07:51:47;;;;;;;20.90;14.53;;;6.50;25.80;;;;;;5116925;28;20551;-67
2022/03/14 07:54:14;;;;;;;21.00;13.70;;;6.50;25.80;;;;;;5118911;28;20934;-69
2022/03/14 07:56:42;;;;;;;22.87;15.53;;;6.60;25.80;;;;;;5118340;28;20452;-70
2022/03/14 07:59:08;;;;;;;22.73;15.20;;;6.70;25.70;;;;;;5116897;28;20522;-69
2022/03/14 08:01:35;;;;;;;22.90;15.37;;;6.70;25.80;;;;;;5117406;28;20767;-69
2022/03/14 08:04:02;;;;;;;24.93;16.27;;;6.70;25.80;;;;;;5117170;28;20456;-68
2022/03/14 08:06:34;;;;;;;26.23;15.40;;;6.80;25.90;;;;;;5117052;28;20837;-68
2022/03/14 08:09:03;;;;;;;23.00;14.17;;;6.90;26.00;;;;;;5117218;28;20436;-69
2022/03/14 08:11:29;;;;;;;19.70;14.23;;;6.90;25.70;;;;;;5116874;28;20525;-69
2022/03/14 08:13:58;;;;;;;22.70;13.53;;;7.00;25.80;;;;;;5117056;28;20456;-69
2022/03/14 08:16:25;;;;;;;22.50;14.63;;;7.10;25.70;;;;;;5117351;28;20551;-69
2022/03/14 08:18:51;;;;;;;22.20;14.60;;;7.10;25.70;;;;;;5116698;28;20452;-68
2022/03/14 08:21:18;;;;;;;18.70;12.70;;;7.20;25.60;;;;;;5116443;28;20857;-69
2022/03/14 08:23:47;;;;;;;19.60;13.33;;;7.30;25.40;;;;;;5116863;28;20467;-68
2022/03/14 08:26:15;;;;;;;21.50;14.20;;;7.40;25.40;;;;;;5116839;28;20467;-70
2022/03/14 08:28:43;;;;;;;21.40;12.87;;;7.50;25.20;;;;;;5117119;28;20562;-69
2022/03/14 08:31:10;;;;;;;20.47;13.20;;;7.60;25.10;;;;;;5117097;28;20863;-70
2022/03/14 08:33:40;;;;;;;20.77;13.60;;;7.60;25.00;;;;;;5118417;28;20513;-69
2022/03/14 08:36:07;;;;;;;21.07;13.60;;;7.70;24.80;;;;;;5120171;28;20461;-69
2022/03/14 08:38:34;;;;;;;22.30;18.10;;;7.80;24.90;;;;;;5119179;28;20456;-69
2022/03/14 08:41:02;;;;;;;18.13;11.27;;;7.80;24.90;;;;;;5119324;28;20476;-69
2022/03/14 08:43:29;;;;;;;17.80;12.30;;;7.90;24.40;;;;;;5118650;28;20452;-69
2022/03/14 08:45:56;;;;;;;23.80;11.97;;;7.90;24.10;;;;;;5118012;28;20471;-70
2022/03/14 08:48:23;;;;;;;18.43;12.47;;;7.90;24.20;;;;;;5116576;28;20452;-69
2022/03/14 08:50:50;;;;;;;19.80;12.77;;;8.00;24.50;;;;;;5116203;28;20566;-68
2022/03/14 08:53:17;;;;;;;18.93;11.97;;;8.10;24.50;;;;;;5116007;28;20553;-68
2022/03/14 08:55:44;;;;;;;16.50;12.07;;;8.10;24.30;;;;;;5115922;28;20569;-70
2022/03/14 08:58:12;;;;;;;17.20;12.33;;;8.30;24.20;;;;;;5115932;28;20804;-69
2022/03/14 09:00:38;;;;;;;15.57;11.50;;;8.30;24.30;;;;;;5116025;28;20476;-69
2022/03/14 09:03:05;;;;;;;15.93;12.23;;;8.40;24.20;;;;;;5116130;28;20793;-70
2022/03/14 09:05:32;;;;;;;18.20;11.57;;;8.40;24.00;;;;;;5116173;28;20484;-69
2022/03/14 09:07:58;;;;;;;18.43;12.00;;;8.40;24.00;;;;;;5115829;28;20452;-69
2022/03/14 09:10:26;;;;;;;18.27;11.23;;;8.40;24.00;;;;;;5115772;28;20459;-68
2022/03/14 09:12:53;;;;;;;18.33;12.27;;;8.50;23.90;;;;;;5115511;28;20923;-69
2022/03/14 09:15:21;;;;;;;18.60;11.67;;;8.50;23.60;;;;;;5115742;28;20463;-69
2022/03/14 09:17:49;;;;;;;17.47;11.27;;;8.50;23.30;;;;;;5115924;28;20460;-70
2022/03/14 09:20:17;;;;;;;22.67;10.73;;;8.50;23.20;;;;;;5115678;28;20476;-69
2022/03/14 09:22:45;;;;;;;23.63;11.77;;;8.60;23.30;;;;;;5114665;28;20482;-69
2022/03/14 09:25:13;;;;;;;18.00;11.60;;;8.60;23.10;;;;;;5115571;28;20482;-68
2022/03/14 09:27:40;;;;;;;17.77;10.90;;;8.70;23.40;;;;;;5115921;28;20463;-69
2022/03/14 09:30:11;;;;;;;16.00;10.90;;;8.80;23.50;;;;;;5115911;28;20467;-69
2022/03/14 09:32:40;;;;;;;15.03;10.90;;;8.90;23.30;;;;;;5116623;28;20441;-69
2022/03/14 09:35:08;;;;;;;17.67;11.03;;;9.00;23.20;;;;;;5117452;28;20917;-69
2022/03/14 09:37:36;;;;;;;16.20;11.17;;;9.10;23.30;;;;;;5115211;28;20515;-69
2022/03/14 09:40:05;;;;;;;15.90;11.57;;;9.10;22.90;;;;;;5115045;28;20472;-69
2022/03/14 09:42:36;;;;;;;13.73;10.87;;;9.20;23.10;;;;;;5115187;28;20452;-68
2022/03/14 09:45:04;;;;;;;13.27;11.37;;;9.40;23.10;;;;;;5115411;28;20780;-69
2022/03/14 09:47:35;;;;;;;17.07;12.03;;;9.50;23.00;;;;;;5114896;28;20456;-69
2022/03/14 09:50:05;;;;;;;16.90;11.50;;;9.50;22.80;;;;;;5115167;28;20506;-69
2022/03/14 09:52:34;;;;;;;15.57;11.70;;;9.50;22.80;;;;;;5114585;28;20490;-69
2022/03/14 09:55:00;;;;;;;14.93;11.47;;;9.60;22.90;;;;;;5115220;28;20461;-68
2022/03/14 09:57:28;;;;;;;14.50;11.37;;;9.70;22.70;;;;;;5116051;28;20460;-69
2022/03/14 09:59:56;;;;;;;18.77;12.00;;;9.70;22.90;;;;;;5114708;28;20582;-69
2022/03/14 10:02:23;;;;;;;15.30;12.13;;;9.80;22.80;;;;;;5114938;28;20822;-68
2022/03/14 10:04:50;;;;;;;23.33;11.73;;;9.90;23.00;;;;;;5114847;28;20464;-69
2022/03/14 10:07:19;;;;;;;15.10;11.13;;;10.00;22.20;;;;;;5114790;28;20515;-69
2022/03/14 10:09:46;;;;;;;17.33;12.03;;;10.00;22.00;;;;;;5115247;28;20494;-69
2022/03/14 10:12:16;;;;;;;17.00;11.43;;;10.00;22.00;;;;;;5114818;28;20467;-69
2022/03/14 10:14:43;;;;;;;14.87;11.73;;;10.10;22.20;;;;;;5114607;28;20533;-69
2022/03/14 10:17:10;;;;;;;16.87;11.90;;;10.20;22.10;;;;;;5114676;28;20783;-69
2022/03/14 10:19:37;;;;;;;21.90;11.33;;;10.30;22.10;;;;;;5115356;28;20452;-69
2022/03/14 10:22:14;;;;;;;15.40;10.67;;;10.50;22.10;;;;;;5114396;28;20901;-70
2022/03/14 10:24:43;;;;;;;16.10;11.90;;;10.50;21.80;;;;;;5114826;28;20459;-69
2022/03/14 10:27:12;;;;;;;18.00;11.00;;;10.60;21.90;;;;;;5114699;28;20453;-69
2022/03/14 10:29:43;;;;;;;16.70;10.80;;;10.80;21.90;;;;;;5114222;28;20488;-69
2022/03/14 10:32:29;;;;;;;14.57;10.43;;;11.00;21.70;;;;;;5114658;28;20553;-69
2022/03/14 10:34:59;;;;;;;12.90;11.03;;;11.00;21.50;;;;;;5114739;28;20474;-69
2022/03/14 10:37:28;;;;;;;17.43;11.03;;;11.00;21.30;;;;;;5114612;28;20467;-68
2022/03/14 10:40:01;;;;;;;15.20;10.83;;;11.10;21.40;;;;;;5114209;28;20537;-69
2022/03/14 10:42:29;;;;;;;19.13;11.07;;;11.30;20.80;;;;;;5114958;28;20456;-70
2022/03/14 10:44:56;;;;;;;11.63;9.50;;;11.40;20.90;;;;;;5114586;28;20460;-70
2022/03/14 10:47:26;;;;;;;15.43;9.57;;;11.40;20.90;;;;;;5114673;28;20456;-69
2022/03/14 10:49:54;;;;;;;13.73;11.30;;;11.50;21.00;;;;;;5113799;28;20533;-69
2022/03/14 10:52:22;;;;;;;14.77;11.03;;;11.60;21.00;;;;;;5113896;28;20954;-69
2022/03/14 10:54:49;;;;;;;15.20;10.20;;;11.60;20.70;;;;;;5114573;28;20460;-70
2022/03/14 10:57:19;;;;;;;15.23;10.70;;;11.50;20.60;;;;;;5115046;28;20452;-69
2022/03/14 10:59:47;;;;;;;17.33;10.70;;;11.60;21.00;;;;;;5115214;28;20669;-69
2022/03/14 11:02:17;;;;;;;16.50;11.13;;;11.60;21.00;;;;;;5115434;28;20452;-73
2022/03/14 11:04:46;;;;;;;13.90;11.33;;;11.70;21.00;;;;;;5114925;28;20452;-70
2022/03/14 11:07:14;;;;;;;12.53;10.00;;;11.70;20.80;;;;;;5114332;28;20460;-69
2022/03/14 11:09:46;;;;;;;15.07;10.10;;;11.70;21.00;;;;;;5114242;28;20511;-69
2022/03/14 11:12:15;;;;;;;13.90;10.53;;;11.70;20.80;;;;;;5114076;28;20447;-69
2022/03/14 11:14:51;;;;;;;16.13;11.70;;;11.70;21.30;;;;;;5114075;28;20452;-69
2022/03/14 11:17:20;;;;;;;16.53;10.67;;;11.90;21.10;;;;;;5115255;28;20472;-69
2022/03/14 11:19:47;;;;;;;13.30;10.00;;;11.90;20.70;;;;;;5114300;28;20459;-69
2022/03/14 11:22:15;;;;;;;15.50;10.73;;;12.00;20.80;;;;;;5114275;28;20452;-69
2022/03/14 11:24:45;;;;;;;17.80;10.20;;;12.10;20.90;;;;;;5114194;28;20460;-69
2022/03/14 11:27:18;;;;;;;13.10;11.03;;;12.30;21.10;;;;;;5113606;28;20459;-69
2022/03/14 11:29:47;;;;;;;15.93;10.83;;;12.50;21.10;;;;;;5113812;28;20517;-69
2022/03/14 11:32:16;;;;;;;13.67;11.27;;;12.80;20.90;;;;;;5113627;28;20749;-69
2022/03/14 11:34:43;;;;;;;15.23;10.77;;;12.90;20.70;;;;;;5114130;28;20543;-69
2022/03/14 11:37:11;;;;;;;12.70;11.07;;;12.80;20.50;;;;;;5113955;28;20837;-69
2022/03/14 11:39:38;;;;;;;16.90;11.30;;;12.90;20.60;;;;;;5114177;28;20525;-69
2022/03/14 11:42:06;;;;;;;15.90;10.90;;;13.00;20.60;;;;;;5114865;28;20485;-70
2022/03/14 11:44:33;;;;;;;12.80;10.63;;;13.10;20.50;;;;;;5115189;28;20456;-69
2022/03/14 11:47:03;;;;;;;14.47;10.13;;;13.10;20.70;;;;;;5116385;28;20456;-69
2022/03/14 11:49:31;;;;;;;12.43;9.80;;;13.20;20.30;;;;;;5116965;28;20459;-69
2022/03/14 11:52:10;;;;;;;12.10;10.43;;;13.30;20.30;;;;;;5118010;28;20506;-71
2022/03/14 11:54:38;;;;;;;11.43;9.80;;;13.50;20.20;;;;;;5117717;28;20588;-70
2022/03/14 11:57:06;;;;;;;16.93;10.03;;;13.70;20.20;;;;;;5117258;28;20466;-69
2022/03/14 11:59:35;;;;;;;13.57;10.07;;;14.10;20.20;;;;;;5117447;28;20864;-69
2022/03/14 12:02:06;;;;;;;12.60;11.10;;;14.70;19.80;;;;;;5117346;28;20514;-71
2022/03/14 12:04:35;;;;;;;20.30;9.90;;;15.30;19.30;;;;;;5117425;28;20425;-69
2022/03/14 12:07:07;;;;;;;11.97;8.93;;;15.80;19.10;;;;;;5116832;28;20456;-68
2022/03/14 12:09:50;;;;;;;11.50;9.97;;;16.70;18.70;;;;;;5116915;28;20922;-69
2022/03/14 12:12:26;;;;;;;11.40;10.20;;;17.30;18.10;;;;;;5116931;28;20433;-70
2022/03/14 12:14:57;;;;;;;15.37;10.50;;;17.30;17.70;;;;;;5116904;28;20463;-69
2022/03/14 12:17:27;;;;;;;15.30;10.10;;;16.60;17.70;;;;;;5117221;28;20448;-69
2022/03/14 12:19:56;;;;;;;11.80;9.40;;;16.30;18.00;;;;;;5116982;28;20460;-69
2022/03/14 12:22:44;;;;;;;12.43;9.83;;;16.00;18.10;;;;;;5116856;28;20492;-69
2022/03/14 12:25:14;;;;;;;11.83;10.10;;;16.00;18.10;;;;;;5116853;28;20463;-70
2022/03/14 12:27:42;;;;;;;14.47;10.10;;;16.10;18.50;;;;;;5116778;28;20448;-69
2022/03/14 12:30:32;;;;;;;14.20;10.63;;;16.20;18.50;;;;;;5116773;28;20555;-69
2022/03/14 12:33:02;;;;;;;13.03;11.27;;;15.90;18.40;;;;;;5117145;28;20850;-69
2022/03/14 12:35:33;;;;;;;12.97;10.80;;;15.70;18.70;;;;;;5116403;28;20445;-70
2022/03/14 12:38:13;;;;;;;12.90;10.00;;;15.40;19.00;;;;;;5116824;28;20440;-70
2022/03/14 12:40:44;;;;;;;17.40;9.87;;;15.00;19.20;;;;;;5116490;28;20460;-68